sensor_id;sensor_type;location;lat;lon;timestamp;temperature;humidity
31837;DHT22;18401;49.344;6.240;2024-03-29T00:01:23;8.00;59.50
31837;DHT22;18401;49.344;6.240;2024-03-29T00:03:49;8.10;12.90
31837;DHT22;18401;49.344;6.240;2024-03-29T00:06:15;8.00;57.70
31837;DHT22;18401;49.344;6.240;2024-03-29T00:08:40;8.00;40.00
31837;DHT22;18401;49.344;6.240;2024-03-29T00:11:06;8.10;68.30
31837;DHT22;18401;49.344;6.240;2024-03-29T00:13:31;8.10;32.60
31837;DHT22;18401;49.344;6.240;2024-03-29T00:15:57;8.10;94.90
31837;DHT22;18401;49.344;6.240;2024-03-29T00:18:23;8.10;99.90
31837;DHT22;18401;49.344;6.240;2024-03-29T00:20:49;8.00;99.90
31837;DHT22;18401;49.344;6.240;2024-03-29T00:23:14;7.90;99.90
31837;DHT22;18401;49.344;6.240;2024-03-29T00:25:40;7.90;99.90
31837;DHT22;18401;49.344;6.240;2024-03-29T00:28:06;7.90;99.90
31837;DHT22;18401;49.344;6.240;2024-03-29T00:33:54;7.70;99.90
31837;DHT22;18401;49.344;6.240;2024-03-29T00:36:20;7.50;1.00
31837;DHT22;18401;49.344;6.240;2024-03-29T00:38:45;7.20;9.90
31837;DHT22;18401;49.344;6.240;2024-03-29T00:41:11;7.30;1.00
31837;DHT22;18401;49.344;6.240;2024-03-29T00:43:37;7.10;98.20
31837;DHT22;18401;49.344;6.240;2024-03-29T00:46:02;7.10;99.90
31837;DHT22;18401;49.344;6.240;2024-03-29T00:48:28;6.90;99.90
31837;DHT22;18401;49.344;6.240;2024-03-29T00:51:31;6.80;99.90
31837;DHT22;18401;49.344;6.240;2024-03-29T00:53:56;6.70;99.90
31837;DHT22;18401;49.344;6.240;2024-03-29T00:56:22;6.70;99.90
31837;DHT22;18401;49.344;6.240;2024-03-29T00:58:48;6.70;99.90
31837;DHT22;18401;49.344;6.240;2024-03-29T01:01:13;6.70;99.90
31837;DHT22;18401;49.344;6.240;2024-03-29T01:03:39;6.70;99.90
31837;DHT22;18401;49.344;6.240;2024-03-29T01:06:04;6.70;99.90
31837;DHT22;18401;49.344;6.240;2024-03-29T01:08:30;6.60;99.90
31837;DHT22;18401;49.344;6.240;2024-03-29T01:10:55;6.60;99.90
31837;DHT22;18401;49.344;6.240;2024-03-29T01:13:21;6.50;99.90
31837;DHT22;18401;49.344;6.240;2024-03-29T01:15:47;6.50;99.90
31837;DHT22;18401;49.344;6.240;2024-03-29T01:18:13;6.50;99.90
31837;DHT22;18401;49.344;6.240;2024-03-29T01:20:54;6.60;99.90
31837;DHT22;18401;49.344;6.240;2024-03-29T01:23:19;6.40;1.00
31837;DHT22;18401;49.344;6.240;2024-03-29T01:25:46;6.40;1.00
31837;DHT22;18401;49.344;6.240;2024-03-29T01:28:12;6.40;17.30
31837;DHT22;18401;49.344;6.240;2024-03-29T01:30:37;6.40;1.00
31837;DHT22;18401;49.344;6.240;2024-03-29T01:33:03;6.40;20.00
31837;DHT22;18401;49.344;6.240;2024-03-29T01:35:28;6.40;6.10
31837;DHT22;18401;49.344;6.240;2024-03-29T01:37:54;6.40;1.00
31837;DHT22;18401;49.344;6.240;2024-03-29T01:40:20;6.40;23.00
31837;DHT22;18401;49.344;6.240;2024-03-29T01:42:45;6.40;85.20
31837;DHT22;18401;49.344;6.240;2024-03-29T01:45:11;6.50;41.10
31837;DHT22;18401;49.344;6.240;2024-03-29T01:47:37;6.50;1.00
31837;DHT22;18401;49.344;6.240;2024-03-29T01:50:03;6.50;2.90
31837;DHT22;18401;49.344;6.240;2024-03-29T01:52:29;6.50;91.50
31837;DHT22;18401;49.344;6.240;2024-03-29T01:54:55;6.40;99.90
31837;DHT22;18401;49.344;6.240;2024-03-29T01:57:21;6.40;99.90
31837;DHT22;18401;49.344;6.240;2024-03-29T01:59:47;6.50;99.90
31837;DHT22;18401;49.344;6.240;2024-03-29T02:02:13;6.50;99.90
31837;DHT22;18401;49.344;6.240;2024-03-29T02:04:40;6.50;99.90
31837;DHT22;18401;49.344;6.240;2024-03-29T02:07:07;6.60;44.70
31837;DHT22;18401;49.344;6.240;2024-03-29T02:09:32;6.70;1.30
31837;DHT22;18401;49.344;6.240;2024-03-29T02:11:58;6.80;1.00
31837;DHT22;18401;49.344;6.240;2024-03-29T02:14:24;6.90;99.90
31837;DHT22;18401;49.344;6.240;2024-03-29T02:16:49;6.90;99.90
31837;DHT22;18401;49.344;6.240;2024-03-29T02:19:15;6.90;99.90
31837;DHT22;18401;49.344;6.240;2024-03-29T02:21:43;6.90;99.90
31837;DHT22;18401;49.344;6.240;2024-03-29T02:24:10;6.90;99.90
31837;DHT22;18401;49.344;6.240;2024-03-29T02:26:37;7.10;99.90
31837;DHT22;18401;49.344;6.240;2024-03-29T02:29:07;7.30;99.90
31837;DHT22;18401;49.344;6.240;2024-03-29T02:31:33;7.60;52.80
31837;DHT22;18401;49.344;6.240;2024-03-29T02:33:58;7.90;1.00
31837;DHT22;18401;49.344;6.240;2024-03-29T02:36:24;8.20;99.90
31837;DHT22;18401;49.344;6.240;2024-03-29T02:38:49;8.40;99.90
31837;DHT22;18401;49.344;6.240;2024-03-29T02:41:15;8.60;99.90
31837;DHT22;18401;49.344;6.240;2024-03-29T02:43:41;8.80;99.90
31837;DHT22;18401;49.344;6.240;2024-03-29T02:46:06;9.00;99.90
31837;DHT22;18401;49.344;6.240;2024-03-29T02:48:32;9.20;99.90
31837;DHT22;18401;49.344;6.240;2024-03-29T02:50:58;9.30;99.90
31837;DHT22;18401;49.344;6.240;2024-03-29T02:53:23;9.30;99.90
31837;DHT22;18401;49.344;6.240;2024-03-29T02:55:49;9.30;99.90
31837;DHT22;18401;49.344;6.240;2024-03-29T02:58:15;9.30;99.90
31837;DHT22;18401;49.344;6.240;2024-03-29T03:00:40;9.40;99.90
31837;DHT22;18401;49.344;6.240;2024-03-29T03:03:06;9.40;99.90
31837;DHT22;18401;49.344;6.240;2024-03-29T03:05:32;9.40;99.90
31837;DHT22;18401;49.344;6.240;2024-03-29T03:07:58;9.50;99.90
31837;DHT22;18401;49.344;6.240;2024-03-29T03:10:46;9.70;99.90
31837;DHT22;18401;49.344;6.240;2024-03-29T03:13:30;9.70;99.90
31837;DHT22;18401;49.344;6.240;2024-03-29T03:15:56;9.70;99.90
31837;DHT22;18401;49.344;6.240;2024-03-29T03:18:22;9.60;99.90
31837;DHT22;18401;49.344;6.240;2024-03-29T03:20:54;9.60;99.90
31837;DHT22;18401;49.344;6.240;2024-03-29T03:23:20;9.60;1.00
31837;DHT22;18401;49.344;6.240;2024-03-29T03:25:59;9.50;1.00
31837;DHT22;18401;49.344;6.240;2024-03-29T03:28:25;9.40;99.90
31837;DHT22;18401;49.344;6.240;2024-03-29T03:30:52;9.20;99.90
31837;DHT22;18401;49.344;6.240;2024-03-29T03:33:18;9.10;99.90
31837;DHT22;18401;49.344;6.240;2024-03-29T03:35:45;9.00;1.00
31837;DHT22;18401;49.344;6.240;2024-03-29T03:38:10;8.90;99.90
31837;DHT22;18401;49.344;6.240;2024-03-29T03:40:37;8.90;99.90
31837;DHT22;18401;49.344;6.240;2024-03-29T03:43:02;8.80;99.90
31837;DHT22;18401;49.344;6.240;2024-03-29T03:45:28;8.80;6.70
31837;DHT22;18401;49.344;6.240;2024-03-29T03:47:58;8.70;87.90
31837;DHT22;18401;49.344;6.240;2024-03-29T03:50:24;8.70;99.90
31837;DHT22;18401;49.344;6.240;2024-03-29T03:52:50;8.70;99.90
31837;DHT22;18401;49.344;6.240;2024-03-29T03:55:15;8.70;1.00
31837;DHT22;18401;49.344;6.240;2024-03-29T03:57:42;8.70;45.10
31837;DHT22;18401;49.344;6.240;2024-03-29T04:00:08;8.60;99.90
31837;DHT22;18401;49.344;6.240;2024-03-29T04:02:34;8.60;99.90
31837;DHT22;18401;49.344;6.240;2024-03-29T04:05:00;8.60;99.90
31837;DHT22;18401;49.344;6.240;2024-03-29T04:07:25;8.60;1.00
31837;DHT22;18401;49.344;6.240;2024-03-29T04:09:51;8.60;1.00
31837;DHT22;18401;49.344;6.240;2024-03-29T04:12:17;8.60;1.00
31837;DHT22;18401;49.344;6.240;2024-03-29T04:14:43;8.60;1.00
31837;DHT22;18401;49.344;6.240;2024-03-29T04:17:08;8.60;3.50
31837;DHT22;18401;49.344;6.240;2024-03-29T04:19:34;8.60;99.90
31837;DHT22;18401;49.344;6.240;2024-03-29T04:22:00;8.60;99.90
31837;DHT22;18401;49.344;6.240;2024-03-29T04:24:25;8.70;99.90
31837;DHT22;18401;49.344;6.240;2024-03-29T04:26:53;8.70;99.90
31837;DHT22;18401;49.344;6.240;2024-03-29T04:29:18;8.60;99.90
31837;DHT22;18401;49.344;6.240;2024-03-29T04:31:45;8.70;99.90
31837;DHT22;18401;49.344;6.240;2024-03-29T04:34:11;8.60;99.90
31837;DHT22;18401;49.344;6.240;2024-03-29T04:36:37;8.70;1.00
31837;DHT22;18401;49.344;6.240;2024-03-29T04:39:02;8.80;1.00
31837;DHT22;18401;49.344;6.240;2024-03-29T04:41:28;8.80;1.00
31837;DHT22;18401;49.344;6.240;2024-03-29T04:43:54;8.90;99.90
31837;DHT22;18401;49.344;6.240;2024-03-29T04:46:19;8.90;99.90
31837;DHT22;18401;49.344;6.240;2024-03-29T04:48:45;8.90;99.90
31837;DHT22;18401;49.344;6.240;2024-03-29T04:51:11;9.00;99.90
31837;DHT22;18401;49.344;6.240;2024-03-29T04:53:40;8.90;99.90
31837;DHT22;18401;49.344;6.240;2024-03-29T04:56:06;8.90;99.90
31837;DHT22;18401;49.344;6.240;2024-03-29T04:58:32;8.80;99.90
31837;DHT22;18401;49.344;6.240;2024-03-29T05:00:58;8.80;99.90
31837;DHT22;18401;49.344;6.240;2024-03-29T05:03:24;8.80;99.90
31837;DHT22;18401;49.344;6.240;2024-03-29T05:05:50;8.70;1.00
31837;DHT22;18401;49.344;6.240;2024-03-29T05:08:16;8.70;51.20
31837;DHT22;18401;49.344;6.240;2024-03-29T05:10:44;8.70;98.90
31837;DHT22;18401;49.344;6.240;2024-03-29T05:13:10;8.70;99.90
31837;DHT22;18401;49.344;6.240;2024-03-29T05:15:35;8.80;99.90
31837;DHT22;18401;49.344;6.240;2024-03-29T05:18:02;8.70;99.90
31837;DHT22;18401;49.344;6.240;2024-03-29T05:20:29;8.70;99.90
31837;DHT22;18401;49.344;6.240;2024-03-29T05:22:54;8.70;99.90
31837;DHT22;18401;49.344;6.240;2024-03-29T05:25:20;8.80;99.90
31837;DHT22;18401;49.344;6.240;2024-03-29T05:27:45;8.80;99.90
31837;DHT22;18401;49.344;6.240;2024-03-29T05:30:11;8.70;1.00
31837;DHT22;18401;49.344;6.240;2024-03-29T05:32:38;8.60;1.00
31837;DHT22;18401;49.344;6.240;2024-03-29T05:35:04;8.50;56.90
31837;DHT22;18401;49.344;6.240;2024-03-29T05:37:30;8.60;99.90
31837;DHT22;18401;49.344;6.240;2024-03-29T05:39:55;8.50;99.90
31837;DHT22;18401;49.344;6.240;2024-03-29T05:42:26;8.50;99.90
31837;DHT22;18401;49.344;6.240;2024-03-29T05:44:51;8.60;99.90
31837;DHT22;18401;49.344;6.240;2024-03-29T05:47:17;8.60;99.90
31837;DHT22;18401;49.344;6.240;2024-03-29T05:49:43;8.60;99.90
31837;DHT22;18401;49.344;6.240;2024-03-29T05:52:09;8.70;99.90
31837;DHT22;18401;49.344;6.240;2024-03-29T05:54:34;8.70;99.90
31837;DHT22;18401;49.344;6.240;2024-03-29T05:57:00;8.70;99.90
31837;DHT22;18401;49.344;6.240;2024-03-29T05:59:25;8.70;99.90
31837;DHT22;18401;49.344;6.240;2024-03-29T06:01:51;8.70;99.90
31837;DHT22;18401;49.344;6.240;2024-03-29T06:04:17;8.70;99.90
31837;DHT22;18401;49.344;6.240;2024-03-29T06:06:45;8.70;99.90
31837;DHT22;18401;49.344;6.240;2024-03-29T06:09:11;8.70;99.90
31837;DHT22;18401;49.344;6.240;2024-03-29T06:11:36;8.70;99.90
31837;DHT22;18401;49.344;6.240;2024-03-29T06:14:02;8.80;99.90
31837;DHT22;18401;49.344;6.240;2024-03-29T06:16:33;8.80;99.90
31837;DHT22;18401;49.344;6.240;2024-03-29T06:19:18;8.80;99.90
31837;DHT22;18401;49.344;6.240;2024-03-29T06:21:43;8.80;99.90
31837;DHT22;18401;49.344;6.240;2024-03-29T06:24:12;8.70;99.90
31837;DHT22;18401;49.344;6.240;2024-03-29T06:26:38;8.80;99.90
31837;DHT22;18401;49.344;6.240;2024-03-29T06:29:04;8.80;99.90
31837;DHT22;18401;49.344;6.240;2024-03-29T06:31:30;8.80;99.90
31837;DHT22;18401;49.344;6.240;2024-03-29T06:33:59;8.80;99.90
31837;DHT22;18401;49.344;6.240;2024-03-29T06:36:24;8.90;99.90
31837;DHT22;18401;49.344;6.240;2024-03-29T06:38:51;8.90;99.90
31837;DHT22;18401;49.344;6.240;2024-03-29T06:41:16;8.90;99.90
31837;DHT22;18401;49.344;6.240;2024-03-29T06:43:42;8.90;99.90
31837;DHT22;18401;49.344;6.240;2024-03-29T06:46:12;9.00;99.90
31837;DHT22;18401;49.344;6.240;2024-03-29T06:48:37;9.00;99.90
31837;DHT22;18401;49.344;6.240;2024-03-29T06:51:03;9.00;99.90
31837;DHT22;18401;49.344;6.240;2024-03-29T06:53:29;9.00;99.90
31837;DHT22;18401;49.344;6.240;2024-03-29T06:55:56;9.10;99.90
31837;DHT22;18401;49.344;6.240;2024-03-29T06:58:22;9.10;99.90
31837;DHT22;18401;49.344;6.240;2024-03-29T07:00:48;9.10;99.90
31837;DHT22;18401;49.344;6.240;2024-03-29T07:03:18;9.10;99.90
31837;DHT22;18401;49.344;6.240;2024-03-29T07:05:47;9.10;99.90
31837;DHT22;18401;49.344;6.240;2024-03-29T07:08:13;9.10;99.90
31837;DHT22;18401;49.344;6.240;2024-03-29T07:10:39;9.10;99.90
31837;DHT22;18401;49.344;6.240;2024-03-29T07:13:06;9.20;99.90
31837;DHT22;18401;49.344;6.240;2024-03-29T07:15:32;9.20;99.90
31837;DHT22;18401;49.344;6.240;2024-03-29T07:17:59;9.20;99.90
31837;DHT22;18401;49.344;6.240;2024-03-29T07:20:27;9.20;99.90
31837;DHT22;18401;49.344;6.240;2024-03-29T07:22:53;9.20;99.90
31837;DHT22;18401;49.344;6.240;2024-03-29T07:25:19;9.20;99.90
31837;DHT22;18401;49.344;6.240;2024-03-29T07:27:44;9.30;99.90
31837;DHT22;18401;49.344;6.240;2024-03-29T07:30:11;9.30;94.10
31837;DHT22;18401;49.344;6.240;2024-03-29T07:32:37;9.30;66.90
31837;DHT22;18401;49.344;6.240;2024-03-29T07:35:03;9.40;35.20
31837;DHT22;18401;49.344;6.240;2024-03-29T07:37:29;9.30;3.40
31837;DHT22;18401;49.344;6.240;2024-03-29T07:39:55;9.30;1.00
31837;DHT22;18401;49.344;6.240;2024-03-29T07:42:20;9.30;1.00
31837;DHT22;18401;49.344;6.240;2024-03-29T07:44:47;9.20;26.50
31837;DHT22;18401;49.344;6.240;2024-03-29T07:47:13;9.20;90.30
31837;DHT22;18401;49.344;6.240;2024-03-29T07:49:40;9.20;99.90
31837;DHT22;18401;49.344;6.240;2024-03-29T07:52:06;9.20;99.90
31837;DHT22;18401;49.344;6.240;2024-03-29T07:54:32;9.20;99.90
31837;DHT22;18401;49.344;6.240;2024-03-29T07:56:58;9.20;99.90
31837;DHT22;18401;49.344;6.240;2024-03-29T07:59:23;9.30;99.90
31837;DHT22;18401;49.344;6.240;2024-03-29T08:01:49;9.30;99.90
31837;DHT22;18401;49.344;6.240;2024-03-29T08:04:17;9.30;99.90
31837;DHT22;18401;49.344;6.240;2024-03-29T08:06:43;9.30;99.90
31837;DHT22;18401;49.344;6.240;2024-03-29T08:09:09;9.30;99.90
31837;DHT22;18401;49.344;6.240;2024-03-29T08:11:35;9.20;99.90
31837;DHT22;18401;49.344;6.240;2024-03-29T08:14:01;9.30;99.90
31837;DHT22;18401;49.344;6.240;2024-03-29T08:16:27;9.30;99.90
31837;DHT22;18401;49.344;6.240;2024-03-29T08:18:53;9.40;99.90
31837;DHT22;18401;49.344;6.240;2024-03-29T08:21:18;9.50;99.90
31837;DHT22;18401;49.344;6.240;2024-03-29T08:23:44;9.60;99.90
31837;DHT22;18401;49.344;6.240;2024-03-29T08:26:12;9.70;99.90
31837;DHT22;18401;49.344;6.240;2024-03-29T08:28:38;9.80;99.90
31837;DHT22;18401;49.344;6.240;2024-03-29T08:31:07;9.80;99.90
31837;DHT22;18401;49.344;6.240;2024-03-29T08:33:35;9.90;99.90
31837;DHT22;18401;49.344;6.240;2024-03-29T08:36:07;10.00;99.90
31837;DHT22;18401;49.344;6.240;2024-03-29T08:38:34;10.20;99.90
31837;DHT22;18401;49.344;6.240;2024-03-29T08:41:00;10.40;99.90
31837;DHT22;18401;49.344;6.240;2024-03-29T08:43:26;10.40;99.90
31837;DHT22;18401;49.344;6.240;2024-03-29T08:45:52;10.50;84.60
31837;DHT22;18401;49.344;6.240;2024-03-29T08:48:18;10.60;7.20
31837;DHT22;18401;49.344;6.240;2024-03-29T08:50:44;10.60;99.90
31837;DHT22;18401;49.344;6.240;2024-03-29T08:53:10;10.60;99.90
31837;DHT22;18401;49.344;6.240;2024-03-29T08:55:35;10.60;99.90
31837;DHT22;18401;49.344;6.240;2024-03-29T08:58:06;10.60;99.90
31837;DHT22;18401;49.344;6.240;2024-03-29T09:00:31;10.70;99.90
31837;DHT22;18401;49.344;6.240;2024-03-29T09:02:57;10.60;99.90
31837;DHT22;18401;49.344;6.240;2024-03-29T09:05:23;10.60;60.10
31837;DHT22;18401;49.344;6.240;2024-03-29T09:07:49;10.70;99.90
31837;DHT22;18401;49.344;6.240;2024-03-29T09:10:15;10.80;5.10
31837;DHT22;18401;49.344;6.240;2024-03-29T09:12:41;10.90;26.10
31837;DHT22;18401;49.344;6.240;2024-03-29T09:15:07;10.90;1.00
31837;DHT22;18401;49.344;6.240;2024-03-29T09:17:36;10.80;1.00
31837;DHT22;18401;49.344;6.240;2024-03-29T09:20:01;10.90;1.00
31837;DHT22;18401;49.344;6.240;2024-03-29T09:22:30;10.90;1.00
31837;DHT22;18401;49.344;6.240;2024-03-29T09:24:55;10.90;99.90
31837;DHT22;18401;49.344;6.240;2024-03-29T09:27:21;11.20;1.00
31837;DHT22;18401;49.344;6.240;2024-03-29T09:29:49;11.40;99.90
31837;DHT22;18401;49.344;6.240;2024-03-29T09:32:15;11.40;99.90
31837;DHT22;18401;49.344;6.240;2024-03-29T09:34:45;11.40;1.30
31837;DHT22;18401;49.344;6.240;2024-03-29T09:37:11;11.60;99.90
31837;DHT22;18401;49.344;6.240;2024-03-29T09:39:36;11.90;99.90
31837;DHT22;18401;49.344;6.240;2024-03-29T09:42:03;11.90;99.90
31837;DHT22;18401;49.344;6.240;2024-03-29T09:44:33;11.70;99.90
31837;DHT22;18401;49.344;6.240;2024-03-29T09:47:04;11.70;1.00
31837;DHT22;18401;49.344;6.240;2024-03-29T09:49:31;11.60;99.90
31837;DHT22;18401;49.344;6.240;2024-03-29T09:52:01;11.70;99.90
31837;DHT22;18401;49.344;6.240;2024-03-29T09:54:29;11.70;99.90
31837;DHT22;18401;49.344;6.240;2024-03-29T09:56:56;11.60;99.90
31837;DHT22;18401;49.344;6.240;2024-03-29T09:59:23;11.50;99.90
31837;DHT22;18401;49.344;6.240;2024-03-29T10:01:50;11.40;99.90
31837;DHT22;18401;49.344;6.240;2024-03-29T10:04:18;11.30;99.90
31837;DHT22;18401;49.344;6.240;2024-03-29T10:06:46;11.30;96.80
31837;DHT22;18401;49.344;6.240;2024-03-29T10:09:18;11.30;1.00
31837;DHT22;18401;49.344;6.240;2024-03-29T10:11:45;11.20;99.90
31837;DHT22;18401;49.344;6.240;2024-03-29T10:14:11;11.10;1.00
31837;DHT22;18401;49.344;6.240;2024-03-29T10:16:36;11.00;99.90
31837;DHT22;18401;49.344;6.240;2024-03-29T10:19:03;10.90;1.00
31837;DHT22;18401;49.344;6.240;2024-03-29T10:21:29;10.80;99.90
31837;DHT22;18401;49.344;6.240;2024-03-29T10:23:55;10.80;99.90
31837;DHT22;18401;49.344;6.240;2024-03-29T10:26:21;10.80;99.90
31837;DHT22;18401;49.344;6.240;2024-03-29T10:28:47;10.70;99.90
31837;DHT22;18401;49.344;6.240;2024-03-29T10:31:14;10.70;99.90
31837;DHT22;18401;49.344;6.240;2024-03-29T10:33:42;10.80;1.00
31837;DHT22;18401;49.344;6.240;2024-03-29T10:36:09;10.80;29.00
31837;DHT22;18401;49.344;6.240;2024-03-29T10:38:38;10.90;92.90
31837;DHT22;18401;49.344;6.240;2024-03-29T10:41:04;10.80;99.90
31837;DHT22;18401;49.344;6.240;2024-03-29T10:43:32;10.80;99.90
31837;DHT22;18401;49.344;6.240;2024-03-29T10:46:00;10.80;99.90
31837;DHT22;18401;49.344;6.240;2024-03-29T10:48:26;10.80;99.90
31837;DHT22;18401;49.344;6.240;2024-03-29T10:50:54;10.70;99.90
31837;DHT22;18401;49.344;6.240;2024-03-29T10:53:24;10.70;99.90
31837;DHT22;18401;49.344;6.240;2024-03-29T10:55:59;10.70;99.90
31837;DHT22;18401;49.344;6.240;2024-03-29T10:58:29;10.70;99.90
31837;DHT22;18401;49.344;6.240;2024-03-29T11:00:57;10.70;99.90
31837;DHT22;18401;49.344;6.240;2024-03-29T11:03:37;10.70;99.90
31837;DHT22;18401;49.344;6.240;2024-03-29T11:06:05;10.70;99.90
31837;DHT22;18401;49.344;6.240;2024-03-29T11:08:35;10.80;99.90
31837;DHT22;18401;49.344;6.240;2024-03-29T11:11:04;10.80;99.90
31837;DHT22;18401;49.344;6.240;2024-03-29T11:13:50;10.80;99.90
31837;DHT22;18401;49.344;6.240;2024-03-29T11:16:18;10.80;99.90
31837;DHT22;18401;49.344;6.240;2024-03-29T11:18:46;10.80;99.90
31837;DHT22;18401;49.344;6.240;2024-03-29T11:21:13;10.80;99.90
31837;DHT22;18401;49.344;6.240;2024-03-29T11:23:52;10.80;99.90
31837;DHT22;18401;49.344;6.240;2024-03-29T11:26:18;10.70;99.90
31837;DHT22;18401;49.344;6.240;2024-03-29T11:28:52;10.70;99.90
31837;DHT22;18401;49.344;6.240;2024-03-29T11:31:21;10.70;99.90
31837;DHT22;18401;49.344;6.240;2024-03-29T11:33:48;10.70;99.90
31837;DHT22;18401;49.344;6.240;2024-03-29T11:36:25;10.70;99.90
31837;DHT22;18401;49.344;6.240;2024-03-29T11:38:52;10.70;99.90
31837;DHT22;18401;49.344;6.240;2024-03-29T11:41:20;10.70;99.90
31837;DHT22;18401;49.344;6.240;2024-03-29T11:43:49;10.60;99.90
31837;DHT22;18401;49.344;6.240;2024-03-29T11:46:15;10.60;99.90
31837;DHT22;18401;49.344;6.240;2024-03-29T11:48:41;10.60;99.90
31837;DHT22;18401;49.344;6.240;2024-03-29T11:51:09;10.50;99.90
31837;DHT22;18401;49.344;6.240;2024-03-29T11:53:36;10.50;99.90
31837;DHT22;18401;49.344;6.240;2024-03-29T11:56:03;10.50;99.90
31837;DHT22;18401;49.344;6.240;2024-03-29T11:58:31;10.50;99.90
31837;DHT22;18401;49.344;6.240;2024-03-29T12:00:58;10.50;99.90
31837;DHT22;18401;49.344;6.240;2024-03-29T12:03:28;10.70;99.90
31837;DHT22;18401;49.344;6.240;2024-03-29T12:05:56;10.80;99.90
31837;DHT22;18401;49.344;6.240;2024-03-29T12:08:29;10.90;99.90
31837;DHT22;18401;49.344;6.240;2024-03-29T12:10:55;11.10;99.90
31837;DHT22;18401;49.344;6.240;2024-03-29T12:13:21;11.20;99.90
31837;DHT22;18401;49.344;6.240;2024-03-29T12:15:46;11.40;99.90
31837;DHT22;18401;49.344;6.240;2024-03-29T12:18:12;11.30;27.20
31837;DHT22;18401;49.344;6.240;2024-03-29T12:20:38;11.10;8.50
31837;DHT22;18401;49.344;6.240;2024-03-29T12:23:09;11.10;27.80
31837;DHT22;18401;49.344;6.240;2024-03-29T12:25:36;11.10;69.20
31837;DHT22;18401;49.344;6.240;2024-03-29T12:28:02;11.00;99.90
31837;DHT22;18401;49.344;6.240;2024-03-29T12:30:29;11.10;99.90
31837;DHT22;18401;49.344;6.240;2024-03-29T12:33:05;11.20;99.90
31837;DHT22;18401;49.344;6.240;2024-03-29T12:35:44;11.20;99.90
31837;DHT22;18401;49.344;6.240;2024-03-29T12:38:12;11.30;99.90
31837;DHT22;18401;49.344;6.240;2024-03-29T12:40:38;11.40;1.00
31837;DHT22;18401;49.344;6.240;2024-03-29T12:43:07;11.40;99.90
31837;DHT22;18401;49.344;6.240;2024-03-29T12:45:36;11.60;99.90
31837;DHT22;18401;49.344;6.240;2024-03-29T12:48:02;11.70;99.90
31837;DHT22;18401;49.344;6.240;2024-03-29T12:50:30;11.80;99.90
31837;DHT22;18401;49.344;6.240;2024-03-29T12:53:02;11.90;99.90
31837;DHT22;18401;49.344;6.240;2024-03-29T12:55:31;12.10;1.00
31837;DHT22;18401;49.344;6.240;2024-03-29T12:57:57;12.20;99.90
31837;DHT22;18401;49.344;6.240;2024-03-29T13:00:25;11.90;1.00
31837;DHT22;18401;49.344;6.240;2024-03-29T13:02:51;11.60;5.50
31837;DHT22;18401;49.344;6.240;2024-03-29T13:05:17;11.80;99.90
31837;DHT22;18401;49.344;6.240;2024-03-29T13:07:42;11.70;99.90
31837;DHT22;18401;49.344;6.240;2024-03-29T13:10:09;11.40;1.00
31837;DHT22;18401;49.344;6.240;2024-03-29T13:12:46;11.40;99.90
31837;DHT22;18401;49.344;6.240;2024-03-29T13:15:20;11.20;99.90
31837;DHT22;18401;49.344;6.240;2024-03-29T13:17:47;11.20;99.90
31837;DHT22;18401;49.344;6.240;2024-03-29T13:20:14;11.20;1.00
31837;DHT22;18401;49.344;6.240;2024-03-29T13:22:43;11.00;95.90
31837;DHT22;18401;49.344;6.240;2024-03-29T13:25:14;10.90;63.90
31837;DHT22;18401;49.344;6.240;2024-03-29T13:27:41;11.00;99.90
31837;DHT22;18401;49.344;6.240;2024-03-29T13:30:08;10.90;99.90
31837;DHT22;18401;49.344;6.240;2024-03-29T13:32:39;10.80;47.90
31837;DHT22;18401;49.344;6.240;2024-03-29T13:35:08;10.80;29.90
31837;DHT22;18401;49.344;6.240;2024-03-29T13:37:41;10.80;1.00
31837;DHT22;18401;49.344;6.240;2024-03-29T13:40:09;10.80;99.90
31837;DHT22;18401;49.344;6.240;2024-03-29T13:42:38;10.80;99.90
31837;DHT22;18401;49.344;6.240;2024-03-29T13:45:05;10.80;99.90
31837;DHT22;18401;49.344;6.240;2024-03-29T13:47:33;10.80;99.90
31837;DHT22;18401;49.344;6.240;2024-03-29T13:49:58;10.80;99.90
31837;DHT22;18401;49.344;6.240;2024-03-29T13:52:24;10.80;99.90
31837;DHT22;18401;49.344;6.240;2024-03-29T13:54:52;10.90;99.90
31837;DHT22;18401;49.344;6.240;2024-03-29T13:57:18;10.90;99.90
31837;DHT22;18401;49.344;6.240;2024-03-29T13:59:44;11.00;99.90
31837;DHT22;18401;49.344;6.240;2024-03-29T14:02:11;10.90;99.90
31837;DHT22;18401;49.344;6.240;2024-03-29T14:04:37;11.00;99.90
31837;DHT22;18401;49.344;6.240;2024-03-29T14:07:03;11.20;51.30
31837;DHT22;18401;49.344;6.240;2024-03-29T14:09:34;11.20;36.60
31837;DHT22;18401;49.344;6.240;2024-03-29T14:11:59;11.30;14.70
31837;DHT22;18401;49.344;6.240;2024-03-29T14:14:25;11.20;99.90
31837;DHT22;18401;49.344;6.240;2024-03-29T14:16:51;11.10;99.90
31837;DHT22;18401;49.344;6.240;2024-03-29T14:19:16;11.10;1.00
31837;DHT22;18401;49.344;6.240;2024-03-29T14:21:42;11.20;62.30
31837;DHT22;18401;49.344;6.240;2024-03-29T14:24:07;11.30;97.90
31837;DHT22;18401;49.344;6.240;2024-03-29T14:26:33;11.50;99.90
31837;DHT22;18401;49.344;6.240;2024-03-29T14:28:59;11.50;99.90
31837;DHT22;18401;49.344;6.240;2024-03-29T14:31:25;11.60;99.90
31837;DHT22;18401;49.344;6.240;2024-03-29T14:33:50;11.80;99.90
31837;DHT22;18401;49.344;6.240;2024-03-29T14:36:16;11.80;79.00
31837;DHT22;18401;49.344;6.240;2024-03-29T14:38:44;11.70;99.90
31837;DHT22;18401;49.344;6.240;2024-03-29T14:41:09;11.90;99.90
31837;DHT22;18401;49.344;6.240;2024-03-29T14:43:36;11.80;99.90
31837;DHT22;18401;49.344;6.240;2024-03-29T14:46:01;11.60;1.00
31837;DHT22;18401;49.344;6.240;2024-03-29T14:48:27;11.60;1.00
31837;DHT22;18401;49.344;6.240;2024-03-29T14:50:53;11.50;23.90
31837;DHT22;18401;49.344;6.240;2024-03-29T14:53:21;11.40;44.40
31837;DHT22;18401;49.344;6.240;2024-03-29T14:55:47;11.20;99.90
31837;DHT22;18401;49.344;6.240;2024-03-29T14:58:13;11.10;99.90
31837;DHT22;18401;49.344;6.240;2024-03-29T15:00:38;11.00;10.00
31837;DHT22;18401;49.344;6.240;2024-03-29T15:03:04;11.10;99.90
31837;DHT22;18401;49.344;6.240;2024-03-29T15:05:29;11.20;99.90
31837;DHT22;18401;49.344;6.240;2024-03-29T15:07:55;11.20;99.90
31837;DHT22;18401;49.344;6.240;2024-03-29T15:10:21;11.20;99.90
31837;DHT22;18401;49.344;6.240;2024-03-29T15:12:47;11.20;99.90
31837;DHT22;18401;49.344;6.240;2024-03-29T15:15:13;11.20;99.90
31837;DHT22;18401;49.344;6.240;2024-03-29T15:17:39;11.30;99.90
31837;DHT22;18401;49.344;6.240;2024-03-29T15:20:05;11.40;99.90
31837;DHT22;18401;49.344;6.240;2024-03-29T15:22:35;11.40;99.90
31837;DHT22;18401;49.344;6.240;2024-03-29T15:25:01;11.30;99.90
31837;DHT22;18401;49.344;6.240;2024-03-29T15:27:27;11.30;99.90
31837;DHT22;18401;49.344;6.240;2024-03-29T15:30:14;11.30;99.90
31837;DHT22;18401;49.344;6.240;2024-03-29T15:32:40;11.50;99.90
31837;DHT22;18401;49.344;6.240;2024-03-29T15:35:06;11.60;99.90
31837;DHT22;18401;49.344;6.240;2024-03-29T15:37:31;11.60;99.90
31837;DHT22;18401;49.344;6.240;2024-03-29T15:39:58;11.60;99.90
31837;DHT22;18401;49.344;6.240;2024-03-29T15:42:24;11.60;19.80
31837;DHT22;18401;49.344;6.240;2024-03-29T15:44:50;11.40;1.00